Time;durP1;ratioP1;P1;durP2;ratioP2;P2;SDS_P1;SDS_P2;PMS_P1;PMS_P2;Temp;Humidity;BMP_temperature;BMP_pressure;BME280_temperature;BME280_humidity;BME280_pressure;Samples;Min_cycle;Max_cycle;Signal;HPM_P1;HPM_P2
2022/07/11 00:01:34;;;;;;;;;;;16.20;99.90;;;;;;5070377;28;20294;-73
2022/07/11 00:03:59;;;;;;;;;;;16.20;99.90;;;;;;5053433;28;19925;-74
2022/07/11 00:06:25;;;;;;;;;;;16.20;99.90;;;;;;5050647;28;19924;-74
2022/07/11 00:08:50;;;;;;;;;;;16.20;99.90;;;;;;5063402;28;19974;-74
2022/07/11 00:11:16;;;;;;;;;;;16.20;99.90;;;;;;5050349;28;19964;-74
2022/07/11 00:13:41;;;;;;;;;;;16.10;99.90;;;;;;5065936;28;19939;-74
2022/07/11 00:16:07;;;;;;;;;;;16.10;99.90;;;;;;5070098;28;20019;-73
2022/07/11 00:18:32;;;;;;;;;;;16.00;99.90;;;;;;5051998;28;19932;-73
2022/07/11 00:20:58;;;;;;;;;;;16.00;99.90;;;;;;5069878;28;19931;-73
2022/07/11 00:23:23;;;;;;;;;;;16.00;99.90;;;;;;5069092;28;19932;-73
2022/07/11 00:25:49;;;;;;;;;;;16.00;99.90;;;;;;5069724;28;20409;-73
2022/07/11 00:28:15;;;;;;;;;;;16.00;99.90;;;;;;5069194;28;20011;-74
2022/07/11 00:30:40;;;;;;;;;;;16.00;99.90;;;;;;5070014;28;19931;-74
2022/07/11 00:33:06;;;;;;;;;;;16.00;99.90;;;;;;5069487;28;19933;-73
2022/07/11 00:35:31;;;;;;;;;;;16.00;99.90;;;;;;5068878;28;19932;-73
2022/07/11 00:37:57;;;;;;;;;;;16.00;99.90;;;;;;5069170;28;20357;-74
2022/07/11 00:40:22;;;;;;;;;;;15.90;99.90;;;;;;5069948;28;20012;-73
2022/07/11 00:42:48;;;;;;;;;;;16.00;99.90;;;;;;5068946;28;19925;-73
2022/07/11 00:45:13;;;;;;;;;;;15.90;99.90;;;;;;5069711;28;19975;-73
2022/07/11 00:47:39;;;;;;;;;;;15.90;99.90;;;;;;5068840;28;19925;-74
2022/07/11 00:50:05;;;;;;;;;;;16.00;99.90;;;;;;5068904;28;19925;-74
2022/07/11 00:52:30;;;;;;;;;;;15.90;99.90;;;;;;5068822;28;19924;-73
2022/07/11 00:54:56;;;;;;;;;;;15.90;99.90;;;;;;5067699;28;19928;-73
2022/07/11 00:57:22;;;;;;;;;;;15.90;99.90;;;;;;5068949;28;20402;-74
2022/07/11 00:59:48;;;;;;;;;;;15.90;99.90;;;;;;5069785;28;19931;-74
2022/07/11 01:02:13;;;;;;;;;;;15.80;99.90;;;;;;5068508;28;19928;-74
2022/07/11 01:04:39;;;;;;;;;;;15.80;99.90;;;;;;5071879;28;19935;-74
2022/07/11 01:07:04;;;;;;;;;;;15.80;99.90;;;;;;5072671;28;20021;-74
2022/07/11 01:09:31;;;;;;;;;;;15.70;99.90;;;;;;5055510;28;19968;-74
2022/07/11 01:11:57;;;;;;;;;;;15.70;99.90;;;;;;5059997;28;20284;-72
2022/07/11 01:14:23;;;;;;;;;;;15.70;99.90;;;;;;5072797;28;20023;-73
2022/07/11 01:16:51;;;;;;;;;;;15.70;99.90;;;;;;5073075;28;20023;-74
2022/07/11 01:19:16;;;;;;;;;;;15.60;99.90;;;;;;5073474;28;19924;-74
2022/07/11 01:21:43;;;;;;;;;;;15.60;99.90;;;;;;5070920;28;19931;-74
2022/07/11 01:24:09;;;;;;;;;;;15.60;99.90;;;;;;5062555;28;19954;-74
2022/07/11 01:26:35;;;;;;;;;;;15.60;99.90;;;;;;5057525;28;19931;-74
2022/07/11 01:29:07;;;;;;;;;;;15.60;99.90;;;;;;5053812;28;19925;-74
2022/07/11 01:31:33;;;;;;;;;;;15.60;99.90;;;;;;5035114;28;20011;-74
2022/07/11 01:33:58;;;;;;;;;;;15.60;99.90;;;;;;5063392;28;20036;-74
2022/07/11 01:36:24;;;;;;;;;;;15.60;99.90;;;;;;5072534;28;19932;-74
2022/07/11 01:38:49;;;;;;;;;;;15.60;99.90;;;;;;5072849;28;20345;-74
2022/07/11 01:41:15;;;;;;;;;;;15.60;99.90;;;;;;5071927;28;19928;-74
2022/07/11 01:43:40;;;;;;;;;;;15.60;99.90;;;;;;5072641;28;19932;-74
2022/07/11 01:46:06;;;;;;;;;;;15.60;99.90;;;;;;5072589;28;19932;-74
2022/07/11 01:48:32;;;;;;;;;;;15.60;99.90;;;;;;5072720;28;19970;-74
2022/07/11 01:50:57;;;;;;;;;;;15.60;99.90;;;;;;5063735;28;19933;-74
2022/07/11 01:53:23;;;;;;;;;;;15.60;99.90;;;;;;5053649;28;20015;-74
2022/07/11 01:55:49;;;;;;;;;;;15.60;99.90;;;;;;5071470;28;19943;-74
2022/07/11 01:58:15;;;;;;;;;;;15.70;99.90;;;;;;5072201;28;19940;-74
2022/07/11 02:00:40;;;;;;;;;;;15.70;99.90;;;;;;5071073;28;19936;-74
2022/07/11 02:03:06;;;;;;;;;;;15.70;99.90;;;;;;5059660;28;20505;-73
2022/07/11 02:05:31;;;;;;;;;;;15.70;99.90;;;;;;5058049;28;20318;-74
2022/07/11 02:08:12;;;;;;;;;;;15.60;99.90;;;;;;5055614;28;19925;-74
2022/07/11 02:10:39;;;;;;;;;;;15.70;99.90;;;;;;5054048;28;19930;-73
2022/07/11 02:13:04;;;;;;;;;;;15.60;99.90;;;;;;5070934;28;19928;-74
2022/07/11 02:15:30;;;;;;;;;;;15.60;99.90;;;;;;5070303;28;19932;-74
2022/07/11 02:17:56;;;;;;;;;;;15.60;99.90;;;;;;5070869;28;19931;-74
2022/07/11 02:20:22;;;;;;;;;;;15.60;99.90;;;;;;5071384;28;20417;-74
2022/07/11 02:22:51;;;;;;;;;;;15.70;99.90;;;;;;5070465;28;19928;-73
2022/07/11 02:25:17;;;;;;;;;;;15.60;99.90;;;;;;5071615;28;19924;-74
2022/07/11 02:27:43;;;;;;;;;;;15.60;99.90;;;;;;5070694;28;19924;-73
2022/07/11 02:30:09;;;;;;;;;;;15.60;99.90;;;;;;5072097;28;19951;-74
2022/07/11 02:32:35;;;;;;;;;;;15.60;99.90;;;;;;5067270;28;20386;-73
2022/07/11 02:35:01;;;;;;;;;;;15.60;99.90;;;;;;5071987;28;19929;-74
2022/07/11 02:37:26;;;;;;;;;;;15.60;99.90;;;;;;5071720;28;19931;-74
2022/07/11 02:39:52;;;;;;;;;;;15.60;99.90;;;;;;5069863;28;19936;-74
2022/07/11 02:42:18;;;;;;;;;;;15.60;99.90;;;;;;5052088;28;19928;-74
2022/07/11 02:44:44;;;;;;;;;;;15.60;99.90;;;;;;5063636;28;20007;-74
2022/07/11 02:47:10;;;;;;;;;;;15.50;99.90;;;;;;5065638;28;20184;-74
2022/07/11 02:49:35;;;;;;;;;;;15.60;99.90;;;;;;5063238;28;19931;-74
2022/07/11 02:52:01;;;;;;;;;;;15.60;99.90;;;;;;5070882;28;19924;-74
2022/07/11 02:54:26;;;;;;;;;;;15.60;99.90;;;;;;5071157;28;19925;-74
2022/07/11 02:56:52;;;;;;;;;;;15.60;99.90;;;;;;5070011;28;19968;-74
2022/07/11 02:59:17;;;;;;;;;;;15.60;99.90;;;;;;5070474;28;20302;-74
2022/07/11 03:01:43;;;;;;;;;;;15.50;99.90;;;;;;5071220;28;20002;-74
2022/07/11 03:04:09;;;;;;;;;;;15.50;99.90;;;;;;5070971;28;19928;-74
2022/07/11 03:06:35;;;;;;;;;;;15.50;99.90;;;;;;5059686;28;19925;-74
2022/07/11 03:09:00;;;;;;;;;;;15.50;99.90;;;;;;5064132;28;20051;-74
2022/07/11 03:11:26;;;;;;;;;;;15.50;99.90;;;;;;5051334;28;20641;-74
2022/07/11 03:13:51;;;;;;;;;;;15.50;99.90;;;;;;5064311;28;19978;-74
2022/07/11 03:16:17;;;;;;;;;;;15.50;99.90;;;;;;5062479;28;19924;-75
2022/07/11 03:18:42;;;;;;;;;;;15.50;99.90;;;;;;5070834;28;20682;-74
2022/07/11 03:21:08;;;;;;;;;;;15.50;99.90;;;;;;5070574;28;19931;-74
2022/07/11 03:23:34;;;;;;;;;;;15.50;99.90;;;;;;5057412;28;19930;-74
2022/07/11 03:26:00;;;;;;;;;;;15.50;99.90;;;;;;5071020;28;19924;-74
2022/07/11 03:28:25;;;;;;;;;;;15.50;99.90;;;;;;5070402;28;19924;-74
2022/07/11 03:30:51;;;;;;;;;;;15.60;99.90;;;;;;5070579;28;19928;-74
2022/07/11 03:33:16;;;;;;;;;;;15.60;99.90;;;;;;5058824;28;20003;-74
2022/07/11 03:35:42;;;;;;;;;;;15.60;99.90;;;;;;5070465;28;19984;-74
2022/07/11 03:38:11;;;;;;;;;;;15.60;99.90;;;;;;5054507;28;19932;-74
2022/07/11 03:40:37;;;;;;;;;;;15.60;99.90;;;;;;5061527;28;20406;-74
2022/07/11 03:43:02;;;;;;;;;;;15.60;99.90;;;;;;5066701;28;19925;-74
2022/07/11 03:45:28;;;;;;;;;;;15.60;99.90;;;;;;5061133;28;19936;-74
2022/07/11 03:47:53;;;;;;;;;;;15.60;99.90;;;;;;5070189;28;20007;-74
2022/07/11 03:50:19;;;;;;;;;;;15.60;99.90;;;;;;5069930;28;19924;-74
2022/07/11 03:52:45;;;;;;;;;;;15.70;99.90;;;;;;5069850;28;19925;-74
2022/07/11 03:55:10;;;;;;;;;;;15.70;99.90;;;;;;5070438;28;20302;-74
2022/07/11 03:57:38;;;;;;;;;;;15.70;99.90;;;;;;5069206;28;20444;-74
2022/07/11 04:00:05;;;;;;;;;;;15.70;99.90;;;;;;5069545;28;20298;-74
2022/07/11 04:02:31;;;;;;;;;;;15.70;99.90;;;;;;5069890;28;19951;-74
2022/07/11 04:04:57;;;;;;;;;;;15.70;99.90;;;;;;5070485;28;20457;-74
2022/07/11 04:07:22;;;;;;;;;;;15.70;99.90;;;;;;5069300;28;20434;-74
2022/07/11 04:09:48;;;;;;;;;;;15.70;99.90;;;;;;5069866;28;19926;-75
2022/07/11 04:12:13;;;;;;;;;;;15.70;99.90;;;;;;5069551;28;19928;-74
2022/07/11 04:14:39;;;;;;;;;;;15.70;99.90;;;;;;5069795;28;19928;-75
2022/07/11 04:17:04;;;;;;;;;;;15.70;99.90;;;;;;5069890;28;19986;-74
2022/07/11 04:19:30;;;;;;;;;;;15.60;99.90;;;;;;5069864;28;19928;-74
2022/07/11 04:21:55;;;;;;;;;;;15.60;99.90;;;;;;5070003;28;19925;-74
2022/07/11 04:24:21;;;;;;;;;;;15.60;99.90;;;;;;5059257;28;19979;-74
2022/07/11 04:26:47;;;;;;;;;;;15.60;99.90;;;;;;5049244;28;20392;-74
2022/07/11 04:29:12;;;;;;;;;;;15.60;99.90;;;;;;5069939;28;20474;-74
2022/07/11 04:31:38;;;;;;;;;;;15.60;99.90;;;;;;5056380;28;19925;-74
2022/07/11 04:34:03;;;;;;;;;;;15.70;99.90;;;;;;5070308;28;19924;-75
2022/07/11 04:36:29;;;;;;;;;;;15.70;99.90;;;;;;5068976;28;19924;-74
2022/07/11 04:38:55;;;;;;;;;;;15.70;99.90;;;;;;5059175;28;19932;-74
2022/07/11 04:41:20;;;;;;;;;;;15.80;99.90;;;;;;5065840;28;19932;-75
2022/07/11 04:43:46;;;;;;;;;;;15.80;99.90;;;;;;5069460;28;20378;-74
2022/07/11 04:46:11;;;;;;;;;;;15.80;99.90;;;;;;5068740;28;19932;-74
2022/07/11 04:48:37;;;;;;;;;;;15.80;99.90;;;;;;5070083;28;19991;-74
2022/07/11 04:51:04;;;;;;;;;;;15.80;99.90;;;;;;5066599;28;19925;-74
2022/07/11 04:53:30;;;;;;;;;;;15.80;99.90;;;;;;5050404;28;19931;-74
2022/07/11 04:55:55;;;;;;;;;;;15.80;99.90;;;;;;5050412;28;20295;-74
2022/07/11 04:58:21;;;;;;;;;;;15.80;99.90;;;;;;5059974;28;20016;-74
2022/07/11 05:00:46;;;;;;;;;;;15.80;99.90;;;;;;5069368;28;19925;-74
2022/07/11 05:03:12;;;;;;;;;;;15.90;99.90;;;;;;5042447;28;19924;-74
2022/07/11 05:05:37;;;;;;;;;;;15.90;99.90;;;;;;5063325;28;19925;-74
2022/07/11 05:08:03;;;;;;;;;;;15.90;99.90;;;;;;5059376;28;19931;-74
2022/07/11 05:10:31;;;;;;;;;;;15.90;99.90;;;;;;5068786;28;19932;-74
2022/07/11 05:12:56;;;;;;;;;;;15.90;99.90;;;;;;5069575;28;19930;-74
2022/07/11 05:15:22;;;;;;;;;;;16.00;99.90;;;;;;5055561;28;19925;-74
2022/07/11 05:17:48;;;;;;;;;;;16.00;99.90;;;;;;5069361;28;20015;-74
2022/07/11 05:20:14;;;;;;;;;;;16.00;99.90;;;;;;5068227;28;20035;-74
2022/07/11 05:22:39;;;;;;;;;;;16.00;99.90;;;;;;5059883;28;19935;-73
2022/07/11 05:25:05;;;;;;;;;;;16.00;99.90;;;;;;5050116;28;19933;-75
2022/07/11 05:27:31;;;;;;;;;;;16.00;99.90;;;;;;5059392;28;19932;-74
2022/07/11 05:29:56;;;;;;;;;;;16.00;99.90;;;;;;5066083;28;19928;-74
2022/07/11 05:32:22;;;;;;;;;;;16.00;99.90;;;;;;5058424;28;19928;-74
2022/07/11 05:34:47;;;;;;;;;;;16.10;99.90;;;;;;5055861;28;19929;-74
2022/07/11 05:37:13;;;;;;;;;;;16.00;99.90;;;;;;5068730;28;19931;-74
2022/07/11 05:39:38;;;;;;;;;;;16.00;99.90;;;;;;5053006;28;19931;-73
2022/07/11 05:42:04;;;;;;;;;;;16.00;99.90;;;;;;5058345;28;20284;-74
2022/07/11 05:44:29;;;;;;;;;;;16.10;99.90;;;;;;5060009;28;19951;-73
2022/07/11 05:46:59;;;;;;;;;;;16.10;99.90;;;;;;5052832;28;20331;-74
2022/07/11 05:49:25;;;;;;;;;;;16.10;99.90;;;;;;5050872;28;19978;-73
2022/07/11 05:51:50;;;;;;;;;;;16.20;99.90;;;;;;5072179;28;19925;-74
2022/07/11 05:54:16;;;;;;;;;;;16.20;99.90;;;;;;5054098;28;19989;-73
2022/07/11 05:56:42;;;;;;;;;;;16.30;99.90;;;;;;5071997;28;20013;-73
2022/07/11 05:59:08;;;;;;;;;;;16.30;99.90;;;;;;5067914;28;19932;-74
2022/07/11 06:01:34;;;;;;;;;;;16.30;99.90;;;;;;5051666;28;19924;-74
2022/07/11 06:04:00;;;;;;;;;;;16.30;99.90;;;;;;5065376;28;19925;-73
2022/07/11 06:06:26;;;;;;;;;;;16.30;99.90;;;;;;5052151;28;20555;-74
2022/07/11 06:08:53;;;;;;;;;;;16.40;99.90;;;;;;5052639;28;19967;-74
2022/07/11 06:11:19;;;;;;;;;;;16.40;99.90;;;;;;5052857;28;19925;-74
2022/07/11 06:13:44;;;;;;;;;;;16.50;99.90;;;;;;5069519;28;20405;-74
2022/07/11 06:16:11;;;;;;;;;;;16.50;99.90;;;;;;5072282;28;19971;-74
2022/07/11 06:18:37;;;;;;;;;;;16.60;99.90;;;;;;5059311;28;19931;-73
2022/07/11 06:21:03;;;;;;;;;;;16.70;99.90;;;;;;5072037;28;19950;-74
2022/07/11 06:23:28;;;;;;;;;;;16.80;99.90;;;;;;5068266;28;19937;-74
2022/07/11 06:25:55;;;;;;;;;;;16.80;99.90;;;;;;5034620;28;19925;-73
2022/07/11 06:28:20;;;;;;;;;;;16.90;99.90;;;;;;5065235;28;19929;-74
2022/07/11 06:30:46;;;;;;;;;;;16.90;99.90;;;;;;5062982;28;19924;-74
2022/07/11 06:33:11;;;;;;;;;;;16.90;99.90;;;;;;5071406;28;20284;-74
2022/07/11 06:35:37;;;;;;;;;;;16.90;99.90;;;;;;5071040;28;20406;-74
2022/07/11 06:38:03;;;;;;;;;;;17.00;99.90;;;;;;5058567;28;19932;-74
2022/07/11 06:40:28;;;;;;;;;;;17.00;99.90;;;;;;5062423;28;19932;-74
2022/07/11 06:42:54;;;;;;;;;;;17.10;99.90;;;;;;5065648;28;20284;-74
2022/07/11 06:45:20;;;;;;;;;;;17.20;99.90;;;;;;5061327;28;19924;-73
2022/07/11 06:47:45;;;;;;;;;;;17.20;99.90;;;;;;5071553;28;19924;-73
2022/07/11 06:50:11;;;;;;;;;;;17.30;99.90;;;;;;5050253;28;20421;-74
2022/07/11 06:52:37;;;;;;;;;;;17.30;99.90;;;;;;5067858;28;19932;-74
2022/07/11 06:55:03;;;;;;;;;;;17.50;99.90;;;;;;5071285;28;19932;-73
2022/07/11 06:57:28;;;;;;;;;;;17.50;99.90;;;;;;5070978;28;20674;-74
2022/07/11 06:59:54;;;;;;;;;;;17.50;99.90;;;;;;5071598;28;19925;-74
2022/07/11 07:02:20;;;;;;;;;;;17.60;99.90;;;;;;5070421;28;19928;-74
2022/07/11 07:04:45;;;;;;;;;;;17.60;99.90;;;;;;5071618;28;19925;-74
2022/07/11 07:07:11;;;;;;;;;;;17.70;99.90;;;;;;5069085;28;20702;-73
2022/07/11 07:09:36;;;;;;;;;;;17.70;99.90;;;;;;5070202;28;19924;-74
2022/07/11 07:12:02;;;;;;;;;;;17.70;99.90;;;;;;5070990;28;20045;-74
2022/07/11 07:14:27;;;;;;;;;;;17.60;99.90;;;;;;5036509;28;19982;-73
2022/07/11 07:16:53;;;;;;;;;;;17.60;99.90;;;;;;5070498;28;19983;-74
2022/07/11 07:19:18;;;;;;;;;;;17.60;99.90;;;;;;5069841;28;20406;-74
2022/07/11 07:21:44;;;;;;;;;;;17.60;99.90;;;;;;5070750;28;20428;-74
2022/07/11 07:24:09;;;;;;;;;;;17.60;99.90;;;;;;5071214;28;19931;-73
2022/07/11 07:26:35;;;;;;;;;;;17.60;99.90;;;;;;5070735;28;19935;-74
2022/07/11 07:29:00;;;;;;;;;;;17.60;99.90;;;;;;5069683;28;20473;-74
2022/07/11 07:31:26;;;;;;;;;;;17.60;99.90;;;;;;5069183;28;19940;-75
2022/07/11 07:33:52;;;;;;;;;;;17.50;99.90;;;;;;5069502;28;19928;-73
2022/07/11 07:36:17;;;;;;;;;;;17.60;99.90;;;;;;5070678;28;19977;-74
2022/07/11 07:38:46;;;;;;;;;;;17.60;99.90;;;;;;5070614;28;19924;-74
2022/07/11 07:41:12;;;;;;;;;;;17.70;99.90;;;;;;5057277;28;19947;-74
2022/07/11 07:43:38;;;;;;;;;;;17.70;99.90;;;;;;5070372;28;19924;-73
2022/07/11 07:46:04;;;;;;;;;;;17.70;99.90;;;;;;5057302;28;20134;-74
2022/07/11 07:48:30;;;;;;;;;;;17.70;99.90;;;;;;5044299;28;19931;-74
2022/07/11 07:50:55;;;;;;;;;;;17.60;99.90;;;;;;5052720;28;20299;-74
2022/07/11 07:53:21;;;;;;;;;;;17.70;99.90;;;;;;5070396;28;20298;-73
2022/07/11 07:55:46;;;;;;;;;;;17.70;99.90;;;;;;5056662;28;20440;-73
2022/07/11 07:58:12;;;;;;;;;;;17.80;99.90;;;;;;5070473;28;20352;-74
2022/07/11 08:03:21;;;;;;;;;;;17.80;99.90;;;;;;5041759;28;19924;-73
2022/07/11 08:05:47;;;;;;;;;;;17.90;99.90;;;;;;5050005;28;19970;-73
2022/07/11 08:08:12;;;;;;;;;;;18.00;99.90;;;;;;5061044;28;19970;-74
2022/07/11 08:10:39;;;;;;;;;;;18.00;99.90;;;;;;5052350;28;19990;-74
2022/07/11 08:13:04;;;;;;;;;;;17.90;99.90;;;;;;5052566;28;20003;-73
2022/07/11 08:15:30;;;;;;;;;;;17.90;99.90;;;;;;5065389;28;20378;-73
2022/07/11 08:17:55;;;;;;;;;;;17.90;99.90;;;;;;5050254;28;20418;-73
2022/07/11 08:20:21;;;;;;;;;;;17.90;99.90;;;;;;5063591;28;19980;-73
2022/07/11 08:22:46;;;;;;;;;;;17.90;99.90;;;;;;5050325;28;19925;-74
2022/07/11 08:25:12;;;;;;;;;;;17.90;99.90;;;;;;5066822;28;19924;-73
2022/07/11 08:27:38;;;;;;;;;;;18.00;99.90;;;;;;5035976;28;19968;-73
2022/07/11 08:30:07;;;;;;;;;;;18.00;99.90;;;;;;5029397;28;19925;-73
2022/07/11 08:32:33;;;;;;;;;;;18.00;99.90;;;;;;5030009;28;19932;-73
2022/07/11 08:34:59;;;;;;;;;;;18.10;99.90;;;;;;5016275;28;19929;-74
2022/07/11 08:37:24;;;;;;;;;;;18.10;99.90;;;;;;5029767;28;20066;-74
2022/07/11 08:39:50;;;;;;;;;;;18.20;99.90;;;;;;5029653;28;19955;-74
2022/07/11 08:42:18;;;;;;;;;;;18.20;99.90;;;;;;5029113;28;19925;-73
2022/07/11 08:44:44;;;;;;;;;;;18.20;99.90;;;;;;5028956;28;19925;-74
2022/07/11 08:47:10;;;;;;;;;;;18.30;99.90;;;;;;5029090;28;19925;-74
2022/07/11 08:49:36;;;;;;;;;;;18.30;99.90;;;;;;5028987;28;19929;-74
2022/07/11 08:52:02;;;;;;;;;;;18.30;99.90;;;;;;5029159;28;20284;-74
2022/07/11 08:54:28;;;;;;;;;;;18.40;99.90;;;;;;5029285;28;20379;-74
2022/07/11 08:56:55;;;;;;;;;;;18.30;99.90;;;;;;5029256;28;19933;-73
2022/07/11 08:59:22;;;;;;;;;;;18.30;99.90;;;;;;5029675;28;19972;-73
2022/07/11 09:01:48;;;;;;;;;;;18.40;99.90;;;;;;5029736;28;19925;-73
2022/07/11 09:04:15;;;;;;;;;;;18.40;99.90;;;;;;5028932;28;19925;-74
2022/07/11 09:06:40;;;;;;;;;;;18.40;99.90;;;;;;5029394;28;19959;-74
2022/07/11 09:09:06;;;;;;;;;;;18.30;99.90;;;;;;5029194;28;20008;-74
2022/07/11 09:11:49;;;;;;;;;;;18.30;99.90;;;;;;5028879;28;20355;-73
2022/07/11 09:14:27;;;;;;;;;;;18.30;99.90;;;;;;5016657;28;19936;-74
2022/07/11 09:16:54;;;;;;;;;;;18.40;99.90;;;;;;5028323;28;20268;-74
2022/07/11 09:19:30;;;;;;;;;;;18.40;99.90;;;;;;5029556;28;19925;-74
2022/07/11 09:27:42;;;;;;;;;;;18.30;99.90;;;;;;5056987;28;20413;-74
2022/07/11 09:30:17;;;;;;;;;;;18.30;99.90;;;;;;5072931;28;20024;-74
2022/07/11 09:33:01;;;;;;;;;;;18.30;99.90;;;;;;5073101;28;19960;-73
2022/07/11 09:35:28;;;;;;;;;;;18.20;99.90;;;;;;5061000;28;19931;-74
2022/07/11 09:37:54;;;;;;;;;;;18.20;99.90;;;;;;5072525;28;19925;-74
2022/07/11 09:40:21;;;;;;;;;;;18.20;99.90;;;;;;5072575;28;19924;-73
2022/07/11 09:42:48;;;;;;;;;;;18.30;99.90;;;;;;5072379;28;19974;-74
2022/07/11 09:45:14;;;;;;;;;;;18.40;99.90;;;;;;5064279;28;19931;-74
2022/07/11 09:47:46;;;;;;;;;;;18.40;99.90;;;;;;5066098;28;19932;-74
2022/07/11 09:50:12;;;;;;;;;;;18.60;99.90;;;;;;5062346;28;19932;-73
2022/07/11 09:52:38;;;;;;;;;;;18.60;99.90;;;;;;5059412;28;19982;-74
2022/07/11 09:55:05;;;;;;;;;;;18.80;99.90;;;;;;5062874;28;19968;-74
2022/07/11 09:57:37;;;;;;;;;;;18.80;99.90;;;;;;5068503;28;19928;-74
2022/07/11 10:00:05;;;;;;;;;;;18.90;99.90;;;;;;5072480;28;19925;-73
2022/07/11 10:02:30;;;;;;;;;;;19.10;99.90;;;;;;5072154;28;20115;-74
2022/07/11 10:04:57;;;;;;;;;;;19.30;99.90;;;;;;5071837;28;20034;-75
2022/07/11 10:07:23;;;;;;;;;;;19.50;99.90;;;;;;5050010;28;19925;-74
2022/07/11 10:09:49;;;;;;;;;;;19.50;99.90;;;;;;5053493;28;20303;-74
2022/07/11 10:12:15;;;;;;;;;;;19.50;99.90;;;;;;5070020;28;19935;-74
2022/07/11 10:14:41;;;;;;;;;;;19.50;99.90;;;;;;5054193;28;19924;-73
2022/07/11 10:17:16;;;;;;;;;;;19.40;99.90;;;;;;5071687;28;20342;-74
2022/07/11 10:19:50;;;;;;;;;;;19.40;99.90;;;;;;5072001;28;19924;-74
2022/07/11 10:22:31;;;;;;;;;;;19.50;99.90;;;;;;5071029;28;19974;-73
2022/07/11 10:25:04;;;;;;;;;;;19.50;99.90;;;;;;5071812;28;19931;-73
2022/07/11 10:27:35;;;;;;;;;;;19.50;99.90;;;;;;5072221;28;19925;-73
2022/07/11 10:30:01;;;;;;;;;;;19.50;99.90;;;;;;5071455;28;19931;-74
2022/07/11 10:32:27;;;;;;;;;;;19.50;99.90;;;;;;5071671;28;19924;-74
2022/07/11 10:35:11;;;;;;;;;;;19.50;99.90;;;;;;5070933;28;20015;-73
2022/07/11 10:37:51;;;;;;;;;;;19.50;99.90;;;;;;5058529;28;20461;-73
2022/07/11 10:40:35;;;;;;;;;;;19.60;99.90;;;;;;5052217;28;19924;-73
2022/07/11 10:43:01;;;;;;;;;;;19.70;99.90;;;;;;5050616;28;19956;-73
2022/07/11 10:45:26;;;;;;;;;;;19.70;99.90;;;;;;5054076;28;20352;-74
2022/07/11 10:47:52;;;;;;;;;;;19.70;99.90;;;;;;5068338;28;19932;-74
2022/07/11 10:50:38;;;;;;;;;;;19.80;99.90;;;;;;5051667;28;19932;-73
2022/07/11 10:53:11;;;;;;;;;;;19.90;99.90;;;;;;5070964;28;19925;-74
2022/07/11 10:55:40;;;;;;;;;;;19.90;99.90;;;;;;5053235;28;19946;-73
2022/07/11 10:58:05;;;;;;;;;;;19.90;99.90;;;;;;5071289;28;20398;-73
2022/07/11 11:00:31;;;;;;;;;;;20.00;99.90;;;;;;5058319;28;19925;-74
2022/07/11 11:02:57;;;;;;;;;;;20.10;99.90;;;;;;5053979;28;19929;-73
2022/07/11 11:05:43;;;;;;;;;;;20.10;99.90;;;;;;5070831;28;20401;-74
2022/07/11 11:08:27;;;;;;;;;;;20.20;99.90;;;;;;5071612;28;19970;-73
2022/07/11 11:10:52;;;;;;;;;;;20.10;99.90;;;;;;5051902;28;20011;-73
2022/07/11 11:13:20;;;;;;;;;;;20.10;99.90;;;;;;5064067;28;20015;-73
2022/07/11 11:15:52;;;;;;;;;;;20.00;99.90;;;;;;5070850;28;19970;-73
2022/07/11 11:18:23;;;;;;;;;;;19.90;99.90;;;;;;5071020;28;19925;-74
2022/07/11 11:23:33;;;;;;;;;;;20.00;99.90;;;;;;5067510;28;19924;-73
2022/07/11 11:26:08;;;;;;;;;;;20.00;99.90;;;;;;5061547;28;19932;-74
2022/07/11 11:28:34;;;;;;;;;;;20.00;99.90;;;;;;5057240;28;19931;-74
2022/07/11 11:31:01;;;;;;;;;;;20.00;99.90;;;;;;5059651;28;19929;-74
2022/07/11 11:33:28;;;;;;;;;;;20.00;99.90;;;;;;5052101;28;19962;-73
2022/07/11 11:36:01;;;;;;;;;;;20.00;99.90;;;;;;5070456;28;19925;-74
2022/07/11 11:38:27;;;;;;;;;;;20.00;99.90;;;;;;5057450;28;19924;-74
2022/07/11 11:40:53;;;;;;;;;;;20.10;99.90;;;;;;5070782;28;19924;-73
2022/07/11 11:43:19;;;;;;;;;;;20.10;99.90;;;;;;5063531;28;19982;-72
2022/07/11 11:45:52;;;;;;;;;;;20.20;99.90;;;;;;5063913;28;19950;-73
2022/07/11 11:48:26;;;;;;;;;;;20.20;99.90;;;;;;5050580;28;19932;-73
2022/07/11 11:50:53;;;;;;;;;;;20.30;99.90;;;;;;5065748;28;19970;-72
2022/07/11 11:53:18;;;;;;;;;;;20.40;99.90;;;;;;5070217;28;19929;-73
2022/07/11 11:55:44;;;;;;;;;;;20.30;99.90;;;;;;5069932;28;19924;-72
2022/07/11 11:58:09;;;;;;;;;;;20.40;99.90;;;;;;5069901;28;19932;-73
2022/07/11 12:00:35;;;;;;;;;;;20.40;99.90;;;;;;5070024;28;19936;-72
2022/07/11 12:03:00;;;;;;;;;;;20.50;99.90;;;;;;5070428;28;19936;-72
2022/07/11 12:05:27;;;;;;;;;;;20.60;99.90;;;;;;5068952;28;20007;-72
2022/07/11 12:07:52;;;;;;;;;;;20.80;99.90;;;;;;5069717;28;19967;-73
2022/07/11 12:10:18;;;;;;;;;;;20.90;99.90;;;;;;5069392;28;19968;-73
2022/07/11 12:12:43;;;;;;;;;;;20.90;99.90;;;;;;5070179;28;20414;-72
2022/07/11 12:15:25;;;;;;;;;;;20.90;99.90;;;;;;5068829;28;19924;-73
2022/07/11 12:17:52;;;;;;;;;;;20.90;99.90;;;;;;5069005;28;19936;-72
2022/07/11 12:20:36;;;;;;;;;;;20.90;99.90;;;;;;5068838;28;19928;-73
2022/07/11 12:23:03;;;;;;;;;;;20.90;99.90;;;;;;5070006;28;19960;-74
2022/07/11 12:25:29;;;;;;;;;;;20.70;99.90;;;;;;5069354;28;19935;-72
2022/07/11 12:27:57;;;;;;;;;;;20.70;99.90;;;;;;5051425;28;19924;-73
2022/07/11 12:30:23;;;;;;;;;;;20.70;99.90;;;;;;5069551;28;20011;-73
2022/07/11 12:33:02;;;;;;;;;;;20.60;99.90;;;;;;5067780;28;19924;-73
2022/07/11 12:35:28;;;;;;;;;;;20.70;99.90;;;;;;5059259;28;19924;-73
2022/07/11 12:37:54;;;;;;;;;;;20.70;99.90;;;;;;5056273;28;19925;-73
2022/07/11 12:40:20;;;;;;;;;;;20.70;99.90;;;;;;5061468;28;19994;-73
2022/07/11 12:42:46;;;;;;;;;;;20.70;99.90;;;;;;5064380;28;19947;-74
2022/07/11 12:45:12;;;;;;;;;;;20.70;99.90;;;;;;5070014;28;19929;-73
2022/07/11 12:47:39;;;;;;;;;;;20.70;99.90;;;;;;5055671;28;19925;-73
2022/07/11 12:50:18;;;;;;;;;;;20.60;99.90;;;;;;5061367;28;19925;-73
2022/07/11 12:52:50;;;;;;;;;;;20.60;99.90;;;;;;5066276;28;19924;-73
2022/07/11 12:55:27;;;;;;;;;;;20.50;99.90;;;;;;5058708;28;20116;-73
2022/07/11 12:58:03;;;;;;;;;;;20.50;99.90;;;;;;5049973;28;20023;-73
2022/07/11 13:00:29;;;;;;;;;;;20.50;99.90;;;;;;5049595;28;19935;-73
2022/07/11 13:02:54;;;;;;;;;;;20.40;99.90;;;;;;5069190;28;19925;-73
2022/07/11 13:05:20;;;;;;;;;;;20.40;99.90;;;;;;5068818;28;19931;-73
2022/07/11 13:13:14;;;;;;;;;;;20.30;99.90;;;;;;5069283;28;20550;-73
2022/07/11 13:15:39;;;;;;;;;;;20.30;99.90;;;;;;5056173;28;19935;-73
2022/07/11 13:18:05;;;;;;;;;;;20.20;99.90;;;;;;5057024;28;19925;-73
2022/07/11 13:20:31;;;;;;;;;;;20.10;99.90;;;;;;5067807;28;19928;-73
2022/07/11 13:22:57;;;;;;;;;;;20.10;99.90;;;;;;5069430;28;19924;-73
2022/07/11 13:25:23;;;;;;;;;;;20.10;99.90;;;;;;5069158;28;19931;-73
2022/07/11 13:27:49;;;;;;;;;;;19.90;99.90;;;;;;5056670;28;19924;-73
2022/07/11 13:30:22;;;;;;;;;;;19.90;99.90;;;;;;5044581;28;19928;-73
2022/07/11 13:32:49;;;;;;;;;;;19.90;99.90;;;;;;5044519;28;20035;-73
2022/07/11 13:35:14;;;;;;;;;;;19.90;99.90;;;;;;5069303;28;19978;-73
2022/07/11 13:37:40;;;;;;;;;;;19.90;99.90;;;;;;5069458;28;19932;-73
2022/07/11 13:40:10;;;;;;;;;;;19.90;99.90;;;;;;5068219;28;19925;-73
2022/07/11 13:42:36;;;;;;;;;;;19.90;99.90;;;;;;5068765;28;20318;-73
2022/07/11 13:45:03;;;;;;;;;;;19.90;99.90;;;;;;5056202;28;19924;-72
2022/07/11 13:47:28;;;;;;;;;;;20.10;99.90;;;;;;5050593;28;19935;-73
2022/07/11 13:49:54;;;;;;;;;;;20.20;99.90;;;;;;5068973;28;19924;-73
2022/07/11 13:52:19;;;;;;;;;;;20.30;99.90;;;;;;5049804;28;19929;-74
2022/07/11 13:54:45;;;;;;;;;;;20.30;99.90;;;;;;5068507;28;19975;-72
2022/07/11 13:57:11;;;;;;;;;;;20.30;99.90;;;;;;5068552;28;19924;-74
2022/07/11 13:59:36;;;;;;;;;;;20.40;99.90;;;;;;5067863;28;19935;-73
2022/07/11 14:02:02;;;;;;;;;;;20.40;99.90;;;;;;5049621;28;19931;-73
2022/07/11 14:04:28;;;;;;;;;;;20.40;99.90;;;;;;5067200;28;19924;-73
2022/07/11 14:06:53;;;;;;;;;;;20.40;99.90;;;;;;5068155;28;19931;-73
2022/07/11 14:09:19;;;;;;;;;;;20.40;99.90;;;;;;5068368;28;19935;-73
2022/07/11 14:11:45;;;;;;;;;;;20.30;99.90;;;;;;5070230;28;19924;-73
2022/07/11 14:14:10;;;;;;;;;;;20.20;99.90;;;;;;5071578;28;20413;-73
2022/07/11 14:16:36;;;;;;;;;;;20.20;99.90;;;;;;5072077;28;19935;-73
2022/07/11 14:19:07;;;;;;;;;;;20.10;99.90;;;;;;5071993;28;19931;-73
2022/07/11 14:21:32;;;;;;;;;;;20.10;99.90;;;;;;5070789;28;19924;-73
2022/07/11 14:23:58;;;;;;;;;;;20.10;99.90;;;;;;5072106;28;19932;-72
2022/07/11 14:26:23;;;;;;;;;;;20.20;99.90;;;;;;5052480;28;19932;-73
2022/07/11 14:28:49;;;;;;;;;;;20.20;99.90;;;;;;5072001;28;19971;-73
2022/07/11 14:31:18;;;;;;;;;;;20.30;99.90;;;;;;5071714;28;20299;-73